sensor_id;sensor_type;location;lat;lon;timestamp;P1;durP1;ratioP1;P2;durP2;ratioP2
11957;SDS011;6039;52.576;13.348;2024-03-02T00:04:32;54.20;;;27.87;;
11957;SDS011;6039;52.576;13.348;2024-03-02T00:09:40;45.83;;;27.43;;
11957;SDS011;6039;52.576;13.348;2024-03-02T00:14:44;52.27;;;28.37;;
11957;SDS011;6039;52.576;13.348;2024-03-02T00:19:48;51.43;;;28.07;;
11957;SDS011;6039;52.576;13.348;2024-03-02T00:24:55;53.53;;;28.37;;
11957;SDS011;6039;52.576;13.348;2024-03-02T00:30:00;52.10;;;27.57;;
11957;SDS011;6039;52.576;13.348;2024-03-02T00:35:04;48.20;;;26.93;;
11957;SDS011;6039;52.576;13.348;2024-03-02T00:40:13;51.70;;;26.90;;
11957;SDS011;6039;52.576;13.348;2024-03-02T00:45:17;48.63;;;27.50;;
11957;SDS011;6039;52.576;13.348;2024-03-02T00:50:21;49.17;;;28.33;;
11957;SDS011;6039;52.576;13.348;2024-03-02T00:55:27;47.13;;;26.80;;
11957;SDS011;6039;52.576;13.348;2024-03-02T01:00:31;49.20;;;26.47;;
11957;SDS011;6039;52.576;13.348;2024-03-02T01:05:35;49.30;;;27.10;;
11957;SDS011;6039;52.576;13.348;2024-03-02T01:10:42;46.70;;;26.03;;
11957;SDS011;6039;52.576;13.348;2024-03-02T01:15:46;46.93;;;26.93;;
11957;SDS011;6039;52.576;13.348;2024-03-02T01:20:50;50.80;;;25.87;;
11957;SDS011;6039;52.576;13.348;2024-03-02T01:25:58;51.13;;;25.83;;
11957;SDS011;6039;52.576;13.348;2024-03-02T01:31:02;45.97;;;24.83;;
11957;SDS011;6039;52.576;13.348;2024-03-02T01:36:06;42.90;;;24.93;;
11957;SDS011;6039;52.576;13.348;2024-03-02T01:41:13;47.63;;;25.57;;
11957;SDS011;6039;52.576;13.348;2024-03-02T01:46:17;42.80;;;24.60;;
11957;SDS011;6039;52.576;13.348;2024-03-02T01:51:21;48.57;;;25.17;;
11957;SDS011;6039;52.576;13.348;2024-03-02T01:56:27;42.87;;;25.07;;
11957;SDS011;6039;52.576;13.348;2024-03-02T02:01:31;44.07;;;24.13;;
11957;SDS011;6039;52.576;13.348;2024-03-02T02:06:35;45.00;;;24.60;;
11957;SDS011;6039;52.576;13.348;2024-03-02T02:11:42;44.83;;;24.60;;
11957;SDS011;6039;52.576;13.348;2024-03-02T02:16:46;43.97;;;25.63;;
11957;SDS011;6039;52.576;13.348;2024-03-02T02:21:52;44.07;;;24.03;;
11957;SDS011;6039;52.576;13.348;2024-03-02T02:26:56;45.00;;;24.70;;
11957;SDS011;6039;52.576;13.348;2024-03-02T02:32:00;47.03;;;26.17;;
11957;SDS011;6039;52.576;13.348;2024-03-02T02:37:07;47.63;;;25.87;;
11957;SDS011;6039;52.576;13.348;2024-03-02T02:42:11;46.17;;;24.73;;
11957;SDS011;6039;52.576;13.348;2024-03-02T02:47:15;46.40;;;24.67;;
11957;SDS011;6039;52.576;13.348;2024-03-02T02:52:21;47.23;;;25.23;;
11957;SDS011;6039;52.576;13.348;2024-03-02T02:57:25;46.43;;;25.73;;
11957;SDS011;6039;52.576;13.348;2024-03-02T03:02:31;48.47;;;25.63;;
11957;SDS011;6039;52.576;13.348;2024-03-02T03:07:38;44.53;;;25.53;;
11957;SDS011;6039;52.576;13.348;2024-03-02T03:12:44;50.03;;;26.57;;
11957;SDS011;6039;52.576;13.348;2024-03-02T03:17:48;54.03;;;26.83;;
11957;SDS011;6039;52.576;13.348;2024-03-02T03:22:54;46.43;;;24.93;;
11957;SDS011;6039;52.576;13.348;2024-03-02T03:27:58;48.50;;;25.17;;
11957;SDS011;6039;52.576;13.348;2024-03-02T03:33:03;42.17;;;25.37;;
11957;SDS011;6039;52.576;13.348;2024-03-02T03:38:10;49.70;;;26.53;;
11957;SDS011;6039;52.576;13.348;2024-03-02T03:43:14;46.67;;;24.73;;
11957;SDS011;6039;52.576;13.348;2024-03-02T03:48:18;47.83;;;26.10;;
11957;SDS011;6039;52.576;13.348;2024-03-02T03:53:25;45.37;;;26.07;;
11957;SDS011;6039;52.576;13.348;2024-03-02T03:58:28;44.67;;;25.13;;
11957;SDS011;6039;52.576;13.348;2024-03-02T04:03:32;44.83;;;24.97;;
11957;SDS011;6039;52.576;13.348;2024-03-02T04:08:39;46.13;;;25.13;;
11957;SDS011;6039;52.576;13.348;2024-03-02T04:13:44;49.37;;;27.03;;
11957;SDS011;6039;52.576;13.348;2024-03-02T04:18:48;47.53;;;26.37;;
11957;SDS011;6039;52.576;13.348;2024-03-02T04:23:55;46.77;;;26.50;;
11957;SDS011;6039;52.576;13.348;2024-03-02T04:28:59;41.90;;;24.30;;
11957;SDS011;6039;52.576;13.348;2024-03-02T04:34:04;41.03;;;22.90;;
11957;SDS011;6039;52.576;13.348;2024-03-02T04:39:11;41.30;;;23.50;;
11957;SDS011;6039;52.576;13.348;2024-03-02T04:44:15;46.77;;;24.97;;
11957;SDS011;6039;52.576;13.348;2024-03-02T04:49:18;41.10;;;22.13;;
11957;SDS011;6039;52.576;13.348;2024-03-02T04:54:25;48.13;;;23.20;;
11957;SDS011;6039;52.576;13.348;2024-03-02T04:59:29;41.73;;;22.53;;
11957;SDS011;6039;52.576;13.348;2024-03-02T05:04:33;41.07;;;23.70;;
11957;SDS011;6039;52.576;13.348;2024-03-02T05:09:40;46.17;;;23.50;;
11957;SDS011;6039;52.576;13.348;2024-03-02T05:14:43;39.97;;;22.53;;
11957;SDS011;6039;52.576;13.348;2024-03-02T05:19:48;44.40;;;23.87;;
11957;SDS011;6039;52.576;13.348;2024-03-02T05:24:54;43.13;;;23.40;;
11957;SDS011;6039;52.576;13.348;2024-03-02T05:30:00;37.70;;;22.30;;
11957;SDS011;6039;52.576;13.348;2024-03-02T05:35:06;45.77;;;23.57;;
11957;SDS011;6039;52.576;13.348;2024-03-02T05:40:15;41.73;;;23.30;;
11957;SDS011;6039;52.576;13.348;2024-03-02T05:45:19;43.20;;;24.40;;
11957;SDS011;6039;52.576;13.348;2024-03-02T05:50:23;43.17;;;24.80;;
11957;SDS011;6039;52.576;13.348;2024-03-02T05:55:29;48.60;;;26.57;;
11957;SDS011;6039;52.576;13.348;2024-03-02T06:00:33;45.17;;;25.47;;
11957;SDS011;6039;52.576;13.348;2024-03-02T06:05:37;44.43;;;25.90;;
11957;SDS011;6039;52.576;13.348;2024-03-02T06:10:44;49.13;;;26.47;;
11957;SDS011;6039;52.576;13.348;2024-03-02T06:15:48;45.33;;;26.33;;
11957;SDS011;6039;52.576;13.348;2024-03-02T06:20:52;52.77;;;27.63;;
11957;SDS011;6039;52.576;13.348;2024-03-02T06:25:59;53.33;;;28.03;;
11957;SDS011;6039;52.576;13.348;2024-03-02T06:31:03;54.00;;;27.17;;
11957;SDS011;6039;52.576;13.348;2024-03-02T06:36:07;48.80;;;26.37;;
11957;SDS011;6039;52.576;13.348;2024-03-02T06:41:14;48.90;;;26.37;;
11957;SDS011;6039;52.576;13.348;2024-03-02T06:46:18;45.23;;;26.23;;
11957;SDS011;6039;52.576;13.348;2024-03-02T06:51:22;49.97;;;26.73;;
11957;SDS011;6039;52.576;13.348;2024-03-02T06:56:29;52.90;;;25.67;;
11957;SDS011;6039;52.576;13.348;2024-03-02T07:01:33;51.30;;;25.43;;
11957;SDS011;6039;52.576;13.348;2024-03-02T07:06:37;49.27;;;26.07;;
11957;SDS011;6039;52.576;13.348;2024-03-02T07:11:44;50.30;;;26.50;;
11957;SDS011;6039;52.576;13.348;2024-03-02T07:16:48;45.03;;;24.90;;
11957;SDS011;6039;52.576;13.348;2024-03-02T07:21:52;46.30;;;25.63;;
11957;SDS011;6039;52.576;13.348;2024-03-02T07:26:58;50.07;;;26.27;;
11957;SDS011;6039;52.576;13.348;2024-03-02T07:32:02;53.27;;;26.10;;
11957;SDS011;6039;52.576;13.348;2024-03-02T07:37:07;49.20;;;24.67;;
11957;SDS011;6039;52.576;13.348;2024-03-02T07:42:13;47.17;;;24.80;;
11957;SDS011;6039;52.576;13.348;2024-03-02T07:47:17;45.17;;;25.80;;
11957;SDS011;6039;52.576;13.348;2024-03-02T07:52:21;50.13;;;26.60;;
11957;SDS011;6039;52.576;13.348;2024-03-02T07:57:28;46.07;;;23.30;;
11957;SDS011;6039;52.576;13.348;2024-03-02T08:02:32;43.00;;;23.13;;
11957;SDS011;6039;52.576;13.348;2024-03-02T08:07:36;45.97;;;25.67;;
11957;SDS011;6039;52.576;13.348;2024-03-02T08:12:43;47.60;;;24.90;;
11957;SDS011;6039;52.576;13.348;2024-03-02T08:17:47;44.27;;;23.93;;
11957;SDS011;6039;52.576;13.348;2024-03-02T08:22:51;45.80;;;25.27;;
11957;SDS011;6039;52.576;13.348;2024-03-02T08:27:58;50.10;;;25.37;;
11957;SDS011;6039;52.576;13.348;2024-03-02T08:33:03;40.93;;;23.80;;
11957;SDS011;6039;52.576;13.348;2024-03-02T08:38:07;50.10;;;25.53;;
11957;SDS011;6039;52.576;13.348;2024-03-02T08:43:13;45.00;;;24.57;;
11957;SDS011;6039;52.576;13.348;2024-03-02T08:48:17;46.80;;;25.27;;
11957;SDS011;6039;52.576;13.348;2024-03-02T08:53:21;46.20;;;25.00;;
11957;SDS011;6039;52.576;13.348;2024-03-02T08:58:28;45.90;;;26.03;;
11957;SDS011;6039;52.576;13.348;2024-03-02T09:03:32;47.03;;;25.07;;
11957;SDS011;6039;52.576;13.348;2024-03-02T09:08:37;46.17;;;25.90;;
11957;SDS011;6039;52.576;13.348;2024-03-02T09:13:43;46.77;;;25.27;;
11957;SDS011;6039;52.576;13.348;2024-03-02T09:18:47;46.70;;;24.90;;
11957;SDS011;6039;52.576;13.348;2024-03-02T09:23:51;44.97;;;24.80;;
11957;SDS011;6039;52.576;13.348;2024-03-02T09:28:58;46.20;;;23.70;;
11957;SDS011;6039;52.576;13.348;2024-03-02T09:34:02;41.93;;;23.67;;
11957;SDS011;6039;52.576;13.348;2024-03-02T09:39:07;40.57;;;22.47;;
11957;SDS011;6039;52.576;13.348;2024-03-02T09:44:13;49.80;;;23.13;;
11957;SDS011;6039;52.576;13.348;2024-03-02T09:49:17;42.57;;;23.13;;
11957;SDS011;6039;52.576;13.348;2024-03-02T09:54:21;44.07;;;23.83;;
11957;SDS011;6039;52.576;13.348;2024-03-02T09:59:28;42.50;;;22.67;;
11957;SDS011;6039;52.576;13.348;2024-03-02T10:04:32;41.20;;;22.53;;
11957;SDS011;6039;52.576;13.348;2024-03-02T10:09:37;41.60;;;21.53;;
11957;SDS011;6039;52.576;13.348;2024-03-02T10:14:44;37.00;;;21.37;;
11957;SDS011;6039;52.576;13.348;2024-03-02T10:19:48;36.37;;;19.87;;
11957;SDS011;6039;52.576;13.348;2024-03-02T10:24:52;34.90;;;20.13;;
11957;SDS011;6039;52.576;13.348;2024-03-02T10:29:59;31.67;;;18.90;;
11957;SDS011;6039;52.576;13.348;2024-03-02T10:35:03;32.73;;;18.80;;
11957;SDS011;6039;52.576;13.348;2024-03-02T10:40:09;29.60;;;17.63;;
11957;SDS011;6039;52.576;13.348;2024-03-02T10:45:17;30.63;;;18.03;;
11957;SDS011;6039;52.576;13.348;2024-03-02T10:50:23;29.43;;;16.73;;
11957;SDS011;6039;52.576;13.348;2024-03-02T10:55:28;27.47;;;16.37;;
11957;SDS011;6039;52.576;13.348;2024-03-02T11:00:34;31.03;;;16.47;;
11957;SDS011;6039;52.576;13.348;2024-03-02T11:05:43;24.47;;;15.40;;
11957;SDS011;6039;52.576;13.348;2024-03-02T11:10:48;24.87;;;14.80;;
11957;SDS011;6039;52.576;13.348;2024-03-02T11:15:59;30.63;;;17.00;;
11957;SDS011;6039;52.576;13.348;2024-03-02T11:21:05;25.73;;;14.70;;
11957;SDS011;6039;52.576;13.348;2024-03-02T11:26:16;23.90;;;14.57;;
11957;SDS011;6039;52.576;13.348;2024-03-02T11:31:23;25.03;;;14.20;;
11957;SDS011;6039;52.576;13.348;2024-03-02T11:37:02;24.10;;;13.73;;
11957;SDS011;6039;52.576;13.348;2024-03-02T11:42:07;24.07;;;14.17;;
11957;SDS011;6039;52.576;13.348;2024-03-02T11:47:14;22.13;;;14.00;;
11957;SDS011;6039;52.576;13.348;2024-03-02T11:52:19;23.60;;;13.60;;
11957;SDS011;6039;52.576;13.348;2024-03-02T11:57:23;20.47;;;12.83;;
11957;SDS011;6039;52.576;13.348;2024-03-02T12:02:34;22.53;;;13.30;;
11957;SDS011;6039;52.576;13.348;2024-03-02T12:07:38;22.70;;;13.67;;
11957;SDS011;6039;52.576;13.348;2024-03-02T12:12:42;19.93;;;12.87;;
11957;SDS011;6039;52.576;13.348;2024-03-02T12:17:49;21.47;;;13.67;;
11957;SDS011;6039;52.576;13.348;2024-03-02T12:22:57;23.33;;;13.33;;
11957;SDS011;6039;52.576;13.348;2024-03-02T12:28:02;18.63;;;11.50;;
11957;SDS011;6039;52.576;13.348;2024-03-02T12:33:10;18.70;;;12.00;;
11957;SDS011;6039;52.576;13.348;2024-03-02T12:38:14;25.57;;;13.90;;
11957;SDS011;6039;52.576;13.348;2024-03-02T12:43:19;24.30;;;13.70;;
11957;SDS011;6039;52.576;13.348;2024-03-02T12:48:26;20.53;;;12.47;;
11957;SDS011;6039;52.576;13.348;2024-03-02T12:53:31;21.80;;;12.33;;
11957;SDS011;6039;52.576;13.348;2024-03-02T12:58:38;17.27;;;11.53;;
11957;SDS011;6039;52.576;13.348;2024-03-02T13:03:45;20.53;;;12.30;;
11957;SDS011;6039;52.576;13.348;2024-03-02T13:08:51;18.10;;;11.03;;
11957;SDS011;6039;52.576;13.348;2024-03-02T13:13:55;20.13;;;13.10;;
11957;SDS011;6039;52.576;13.348;2024-03-02T13:19:02;19.23;;;12.23;;
11957;SDS011;6039;52.576;13.348;2024-03-02T13:24:06;22.37;;;12.70;;
11957;SDS011;6039;52.576;13.348;2024-03-02T13:29:10;22.03;;;12.97;;
11957;SDS011;6039;52.576;13.348;2024-03-02T13:34:17;18.80;;;11.47;;
11957;SDS011;6039;52.576;13.348;2024-03-02T13:39:21;17.17;;;10.90;;
11957;SDS011;6039;52.576;13.348;2024-03-02T13:44:25;20.07;;;11.50;;
11957;SDS011;6039;52.576;13.348;2024-03-02T13:49:32;16.13;;;10.23;;
11957;SDS011;6039;52.576;13.348;2024-03-02T13:54:37;16.27;;;10.93;;
11957;SDS011;6039;52.576;13.348;2024-03-02T13:59:42;15.50;;;10.30;;
11957;SDS011;6039;52.576;13.348;2024-03-02T14:04:48;17.30;;;10.70;;
11957;SDS011;6039;52.576;13.348;2024-03-02T14:09:52;16.27;;;10.07;;
11957;SDS011;6039;52.576;13.348;2024-03-02T14:14:57;16.77;;;9.93;;
11957;SDS011;6039;52.576;13.348;2024-03-02T14:20:05;17.13;;;9.63;;
11957;SDS011;6039;52.576;13.348;2024-03-02T14:25:11;15.53;;;9.10;;
11957;SDS011;6039;52.576;13.348;2024-03-02T14:30:15;16.67;;;9.23;;
11957;SDS011;6039;52.576;13.348;2024-03-02T14:35:22;14.37;;;8.73;;
11957;SDS011;6039;52.576;13.348;2024-03-02T14:40:26;14.63;;;8.97;;
11957;SDS011;6039;52.576;13.348;2024-03-02T14:45:30;12.43;;;7.70;;
11957;SDS011;6039;52.576;13.348;2024-03-02T14:50:36;10.17;;;6.83;;
11957;SDS011;6039;52.576;13.348;2024-03-02T14:55:40;13.70;;;7.87;;
11957;SDS011;6039;52.576;13.348;2024-03-02T15:00:44;12.30;;;7.47;;
11957;SDS011;6039;52.576;13.348;2024-03-02T15:05:51;12.97;;;8.27;;
11957;SDS011;6039;52.576;13.348;2024-03-02T15:10:55;9.90;;;6.30;;
11957;SDS011;6039;52.576;13.348;2024-03-02T15:16:00;13.67;;;7.70;;
11957;SDS011;6039;52.576;13.348;2024-03-02T15:21:07;15.07;;;9.10;;
11957;SDS011;6039;52.576;13.348;2024-03-02T15:26:10;11.80;;;8.00;;
11957;SDS011;6039;52.576;13.348;2024-03-02T15:31:15;12.77;;;8.20;;
11957;SDS011;6039;52.576;13.348;2024-03-02T15:36:22;16.93;;;9.10;;
11957;SDS011;6039;52.576;13.348;2024-03-02T15:41:26;12.67;;;8.43;;
11957;SDS011;6039;52.576;13.348;2024-03-02T15:46:30;12.67;;;8.37;;
11957;SDS011;6039;52.576;13.348;2024-03-02T15:51:36;13.00;;;7.80;;
11957;SDS011;6039;52.576;13.348;2024-03-02T15:56:43;13.53;;;8.03;;
11957;SDS011;6039;52.576;13.348;2024-03-02T16:01:48;13.20;;;8.50;;
11957;SDS011;6039;52.576;13.348;2024-03-02T16:06:54;13.90;;;7.77;;
11957;SDS011;6039;52.576;13.348;2024-03-02T16:11:58;12.27;;;6.80;;
11957;SDS011;6039;52.576;13.348;2024-03-02T16:17:02;10.57;;;6.53;;
11957;SDS011;6039;52.576;13.348;2024-03-02T16:22:09;9.80;;;6.23;;
11957;SDS011;6039;52.576;13.348;2024-03-02T16:27:13;11.07;;;7.03;;
11957;SDS011;6039;52.576;13.348;2024-03-02T16:32:18;9.33;;;6.47;;
11957;SDS011;6039;52.576;13.348;2024-03-02T16:37:24;12.90;;;7.60;;
11957;SDS011;6039;52.576;13.348;2024-03-02T16:42:28;11.63;;;7.30;;
11957;SDS011;6039;52.576;13.348;2024-03-02T16:47:32;13.63;;;7.50;;
11957;SDS011;6039;52.576;13.348;2024-03-02T16:52:38;14.03;;;7.20;;
11957;SDS011;6039;52.576;13.348;2024-03-02T16:57:42;16.60;;;8.60;;
11957;SDS011;6039;52.576;13.348;2024-03-02T17:02:46;14.27;;;8.57;;
11957;SDS011;6039;52.576;13.348;2024-03-02T17:07:55;15.13;;;7.60;;
11957;SDS011;6039;52.576;13.348;2024-03-02T17:12:59;12.77;;;7.60;;
11957;SDS011;6039;52.576;13.348;2024-03-02T17:18:03;16.10;;;8.87;;
11957;SDS011;6039;52.576;13.348;2024-03-02T17:23:10;13.23;;;8.57;;
11957;SDS011;6039;52.576;13.348;2024-03-02T17:28:17;13.80;;;8.53;;
11957;SDS011;6039;52.576;13.348;2024-03-02T17:33:22;12.97;;;7.67;;
11957;SDS011;6039;52.576;13.348;2024-03-02T17:38:29;14.17;;;9.00;;
11957;SDS011;6039;52.576;13.348;2024-03-02T17:43:33;16.80;;;9.77;;
11957;SDS011;6039;52.576;13.348;2024-03-02T17:48:37;17.70;;;10.20;;
11957;SDS011;6039;52.576;13.348;2024-03-02T17:53:44;18.23;;;10.33;;
11957;SDS011;6039;52.576;13.348;2024-03-02T17:58:49;21.30;;;10.67;;
11957;SDS011;6039;52.576;13.348;2024-03-02T18:03:53;19.27;;;10.23;;
11957;SDS011;6039;52.576;13.348;2024-03-02T18:08:59;16.90;;;9.90;;
11957;SDS011;6039;52.576;13.348;2024-03-02T18:14:03;18.70;;;10.50;;
11957;SDS011;6039;52.576;13.348;2024-03-02T18:19:07;15.90;;;10.10;;
11957;SDS011;6039;52.576;13.348;2024-03-02T18:24:14;15.23;;;9.67;;
11957;SDS011;6039;52.576;13.348;2024-03-02T18:29:23;15.83;;;9.70;;
11957;SDS011;6039;52.576;13.348;2024-03-02T18:34:27;15.70;;;9.90;;
11957;SDS011;6039;52.576;13.348;2024-03-02T18:39:34;18.93;;;11.17;;
11957;SDS011;6039;52.576;13.348;2024-03-02T18:44:41;17.47;;;10.43;;
11957;SDS011;6039;52.576;13.348;2024-03-02T18:49:46;19.10;;;10.53;;
11957;SDS011;6039;52.576;13.348;2024-03-02T18:54:52;19.40;;;10.40;;
11957;SDS011;6039;52.576;13.348;2024-03-02T18:59:56;17.50;;;10.67;;
11957;SDS011;6039;52.576;13.348;2024-03-02T19:05:01;17.87;;;10.97;;
11957;SDS011;6039;52.576;13.348;2024-03-02T19:10:09;18.83;;;11.77;;
11957;SDS011;6039;52.576;13.348;2024-03-02T19:15:13;17.03;;;10.33;;
11957;SDS011;6039;52.576;13.348;2024-03-02T19:20:17;18.53;;;11.47;;
11957;SDS011;6039;52.576;13.348;2024-03-02T19:25:25;18.70;;;11.60;;
11957;SDS011;6039;52.576;13.348;2024-03-02T19:30:29;19.60;;;12.50;;
11957;SDS011;6039;52.576;13.348;2024-03-02T19:35:33;23.43;;;12.80;;
11957;SDS011;6039;52.576;13.348;2024-03-02T19:40:40;19.67;;;12.87;;
11957;SDS011;6039;52.576;13.348;2024-03-02T19:45:44;24.50;;;11.57;;
11957;SDS011;6039;52.576;13.348;2024-03-02T19:50:48;22.60;;;12.47;;
11957;SDS011;6039;52.576;13.348;2024-03-02T19:55:55;20.67;;;12.80;;
11957;SDS011;6039;52.576;13.348;2024-03-02T20:00:59;20.73;;;12.70;;
11957;SDS011;6039;52.576;13.348;2024-03-02T20:06:04;25.90;;;13.70;;
11957;SDS011;6039;52.576;13.348;2024-03-02T20:11:10;23.27;;;12.77;;
11957;SDS011;6039;52.576;13.348;2024-03-02T20:16:15;18.63;;;12.10;;
11957;SDS011;6039;52.576;13.348;2024-03-02T20:21:20;20.43;;;12.07;;
11957;SDS011;6039;52.576;13.348;2024-03-02T20:26:27;23.43;;;13.40;;
11957;SDS011;6039;52.576;13.348;2024-03-02T20:31:31;23.33;;;13.17;;
11957;SDS011;6039;52.576;13.348;2024-03-02T20:36:36;23.90;;;12.73;;
11957;SDS011;6039;52.576;13.348;2024-03-02T20:41:43;22.90;;;12.87;;
11957;SDS011;6039;52.576;13.348;2024-03-02T20:46:47;26.87;;;15.90;;
11957;SDS011;6039;52.576;13.348;2024-03-02T20:51:52;27.37;;;16.57;;
11957;SDS011;6039;52.576;13.348;2024-03-02T20:57:00;24.90;;;15.97;;
11957;SDS011;6039;52.576;13.348;2024-03-02T21:02:05;24.83;;;15.77;;
11957;SDS011;6039;52.576;13.348;2024-03-02T21:07:10;26.47;;;17.00;;
11957;SDS011;6039;52.576;13.348;2024-03-02T21:12:16;25.83;;;16.00;;
11957;SDS011;6039;52.576;13.348;2024-03-02T21:17:20;27.90;;;16.90;;
11957;SDS011;6039;52.576;13.348;2024-03-02T21:22:26;28.73;;;18.10;;
11957;SDS011;6039;52.576;13.348;2024-03-02T21:27:32;32.63;;;17.87;;
11957;SDS011;6039;52.576;13.348;2024-03-02T21:32:36;28.10;;;17.67;;
11957;SDS011;6039;52.576;13.348;2024-03-02T21:37:41;27.57;;;17.50;;
11957;SDS011;6039;52.576;13.348;2024-03-02T21:42:48;31.47;;;17.17;;
11957;SDS011;6039;52.576;13.348;2024-03-02T21:47:52;32.30;;;17.73;;
11957;SDS011;6039;52.576;13.348;2024-03-02T21:52:56;36.40;;;18.63;;
11957;SDS011;6039;52.576;13.348;2024-03-02T21:58:06;32.20;;;19.40;;
11957;SDS011;6039;52.576;13.348;2024-03-02T22:03:10;36.17;;;18.27;;
11957;SDS011;6039;52.576;13.348;2024-03-02T22:08:14;30.47;;;18.63;;
11957;SDS011;6039;52.576;13.348;2024-03-02T22:13:21;32.93;;;19.50;;
11957;SDS011;6039;52.576;13.348;2024-03-02T22:18:25;33.93;;;20.63;;
11957;SDS011;6039;52.576;13.348;2024-03-02T22:23:29;30.63;;;19.30;;
11957;SDS011;6039;52.576;13.348;2024-03-02T22:28:36;31.00;;;18.80;;
11957;SDS011;6039;52.576;13.348;2024-03-02T22:33:40;31.90;;;19.30;;
11957;SDS011;6039;52.576;13.348;2024-03-02T22:38:44;35.80;;;19.70;;
11957;SDS011;6039;52.576;13.348;2024-03-02T22:43:51;28.03;;;17.77;;
11957;SDS011;6039;52.576;13.348;2024-03-02T22:48:55;32.93;;;18.43;;
11957;SDS011;6039;52.576;13.348;2024-03-02T22:53:58;31.17;;;18.67;;
11957;SDS011;6039;52.576;13.348;2024-03-02T22:59:05;30.27;;;18.30;;
11957;SDS011;6039;52.576;13.348;2024-03-02T23:04:09;35.17;;;18.93;;
11957;SDS011;6039;52.576;13.348;2024-03-02T23:09:13;32.73;;;18.00;;
11957;SDS011;6039;52.576;13.348;2024-03-02T23:14:20;34.97;;;19.30;;
11957;SDS011;6039;52.576;13.348;2024-03-02T23:19:24;29.70;;;17.77;;
11957;SDS011;6039;52.576;13.348;2024-03-02T23:24:28;30.53;;;17.77;;
11957;SDS011;6039;52.576;13.348;2024-03-02T23:29:34;30.33;;;17.77;;
11957;SDS011;6039;52.576;13.348;2024-03-02T23:34:40;32.30;;;18.27;;
11957;SDS011;6039;52.576;13.348;2024-03-02T23:39:44;30.53;;;18.23;;
11957;SDS011;6039;52.576;13.348;2024-03-02T23:45:03;34.60;;;18.03;;
11957;SDS011;6039;52.576;13.348;2024-03-02T23:50:08;33.80;;;18.20;;
11957;SDS011;6039;52.576;13.348;2024-03-02T23:55:12;37.10;;;19.50;;
